createdAt,value
2019-01-05T00:01:18.763Z,27.27
2019-01-05T00:04:13.356Z,28.13
2019-01-05T00:07:04.689Z,24.57
2019-01-05T00:10:01.270Z,26.90
2019-01-05T00:13:02.291Z,34.27
2019-01-05T00:15:47.020Z,30.17
2019-01-05T00:18:49.559Z,29.13
2019-01-05T00:21:46.525Z,29.27
2019-01-05T00:24:36.475Z,27.00
2019-01-05T00:27:27.941Z,31.80
2019-01-05T00:30:17.327Z,29.00
2019-01-05T00:33:07.856Z,26.60
2019-01-05T00:36:16.602Z,31.63
2019-01-05T00:39:08.534Z,25.33
2019-01-05T00:42:03.735Z,22.90
2019-01-05T00:44:55.429Z,22.83
2019-01-05T00:47:54.842Z,24.60
2019-01-05T00:50:47.314Z,19.43
2019-01-05T00:53:54.479Z,19.93
2019-01-05T00:56:48.352Z,23.13
2019-01-05T00:59:40.765Z,23.30
2019-01-05T01:02:29.722Z,23.20
2019-01-05T01:05:18.770Z,20.63
2019-01-05T01:08:07.976Z,22.97
2019-01-05T01:10:58.868Z,19.67
2019-01-05T01:14:04.604Z,20.97
2019-01-05T01:16:54.400Z,23.63
2019-01-05T01:19:41.234Z,22.13
2019-01-05T01:22:31.805Z,21.67
2019-01-05T01:25:17.499Z,23.27
2019-01-05T01:28:14.698Z,21.30
2019-01-05T01:31:04.959Z,19.50
2019-01-05T01:33:47.878Z,25.90
2019-01-05T01:36:38.726Z,27.63
2019-01-05T01:39:35.823Z,26.20
2019-01-05T01:42:33.962Z,28.83
2019-01-05T01:45:22.464Z,27.43
2019-01-05T01:48:24.309Z,35.80
2019-01-05T01:51:20.440Z,33.97
2019-01-05T01:54:11.321Z,36.83
2019-01-05T01:57:04.805Z,34.47
2019-01-05T02:00:13.024Z,32.87
2019-01-05T02:03:09.175Z,31.90
2019-01-05T02:06:03.430Z,32.57
2019-01-05T02:08:56.418Z,30.73
2019-01-05T02:11:51.326Z,33.80
2019-01-05T02:14:46.752Z,34.40
2019-01-05T02:17:51.977Z,28.70
2019-01-05T02:21:53.499Z,32.60
2019-01-05T02:25:16.127Z,27.90
2019-01-05T02:28:25.733Z,31.53
2019-01-05T02:31:59.486Z,26.13
2019-01-05T02:35:22.521Z,29.57
2019-01-05T02:38:54.486Z,29.70
2019-01-05T02:42:17.209Z,25.53
2019-01-05T02:45:53.024Z,22.43
2019-01-05T02:49:31.487Z,25.10
2019-01-05T02:53:14.240Z,19.70
2019-01-05T02:56:40.610Z,16.97
2019-01-05T03:00:17.157Z,19.20
2019-01-05T03:03:38.653Z,15.60
2019-01-05T03:07:33.469Z,15.30
2019-01-05T03:11:00.421Z,13.20
2019-01-05T03:14:39.449Z,14.93
2019-01-05T03:18:11.191Z,14.33
2019-01-05T03:21:44.190Z,10.30
2019-01-05T03:25:12.266Z,12.60
2019-01-05T03:28:42.008Z,11.40
2019-01-05T03:32:10.040Z,7.27
2019-01-05T03:35:55.318Z,6.27
2019-01-05T03:39:28.769Z,6.30
2019-01-05T03:42:56.936Z,8.20
2019-01-05T03:46:27.468Z,6.17
2019-01-05T03:49:57.555Z,6.50
2019-01-05T03:53:27.129Z,7.13
2019-01-05T03:56:33.488Z,5.73
2019-01-05T04:00:14.953Z,6.13
2019-01-05T04:03:41.242Z,7.70
2019-01-05T04:07:14.561Z,6.87
2019-01-05T04:11:01.856Z,7.10
2019-01-05T04:14:14.571Z,7.40
2019-01-05T04:17:57.231Z,8.23
2019-01-05T04:21:37.521Z,4.60
2019-01-05T04:24:54.246Z,4.83
2019-01-05T04:28:15.865Z,3.20
2019-01-05T04:32:14.168Z,3.83
2019-01-05T04:35:38.603Z,3.70
2019-01-05T04:39:23.968Z,5.63
2019-01-05T04:42:55.901Z,5.07
2019-01-05T04:46:24.597Z,3.43
2019-01-05T04:50:00.367Z,5.17
2019-01-05T04:53:38.425Z,5.70
2019-01-05T04:57:21.113Z,9.13
2019-01-05T05:01:00.769Z,4.53
2019-01-05T05:04:15.001Z,8.03
2019-01-05T05:08:20.275Z,5.87
2019-01-05T05:11:49.040Z,6.57
2019-01-05T05:15:04.194Z,6.87
2019-01-05T05:18:40.707Z,3.60
2019-01-05T05:22:14.126Z,7.13
2019-01-05T05:25:53.685Z,3.57
2019-01-05T05:29:19.561Z,3.30
2019-01-05T05:33:06.475Z,4.33
2019-01-05T05:36:45.714Z,3.13
2019-01-05T05:40:35.911Z,6.37
2019-01-05T05:44:27.188Z,4.70
2019-01-05T05:47:46.870Z,2.17
2019-01-05T05:51:20.251Z,3.00
2019-01-05T05:55:14.897Z,7.23
2019-01-05T05:58:40.710Z,9.30
2019-01-05T06:02:23.036Z,8.53
2019-01-05T06:05:57.652Z,4.40
2019-01-05T06:09:50.688Z,6.77
2019-01-05T06:13:27.642Z,5.10
2019-01-05T06:17:10.690Z,11.50
2019-01-05T06:20:48.156Z,5.30
2019-01-05T06:24:21.547Z,7.93
2019-01-05T06:28:29.021Z,12.00
2019-01-05T06:32:05.931Z,6.67
2019-01-05T06:35:29.092Z,8.57
2019-01-05T06:39:06.967Z,7.70
2019-01-05T06:42:59.578Z,9.63
2019-01-05T06:46:56.164Z,7.13
2019-01-05T06:50:26.748Z,4.23
2019-01-05T06:53:56.875Z,9.57
2019-01-05T06:57:36.412Z,7.93
2019-01-05T07:01:27.474Z,9.80
2019-01-05T07:04:56.862Z,7.97
2019-01-05T07:08:34.248Z,9.20
2019-01-05T07:12:25.755Z,9.67
2019-01-05T07:16:15.088Z,7.10
2019-01-05T07:19:54.828Z,5.90
2019-01-05T07:23:38.196Z,6.33
2019-01-05T07:27:14.031Z,5.37
2019-01-05T07:30:41.588Z,3.90
2019-01-05T07:34:35.153Z,4.17
2019-01-05T07:38:10.159Z,4.67
2019-01-05T07:42:02.596Z,2.30
2019-01-05T07:45:49.218Z,5.47
2019-01-05T07:49:34.389Z,3.97
2019-01-05T07:53:18.341Z,2.13
2019-01-05T07:56:34.960Z,2.80
2019-01-05T07:59:57.397Z,5.47
2019-01-05T08:03:19.215Z,2.00
2019-01-05T08:07:00.846Z,3.80
2019-01-05T08:10:49.874Z,3.90
2019-01-05T08:14:55.501Z,5.90
2019-01-05T08:18:30.439Z,3.03
2019-01-05T08:21:58.438Z,4.03
2019-01-05T08:25:16.489Z,5.13
2019-01-05T08:28:41.602Z,5.40
2019-01-05T08:32:09.807Z,3.90
2019-01-05T08:35:51.581Z,5.40
2019-01-05T08:39:16.189Z,5.53
2019-01-05T08:42:26.653Z,5.03
2019-01-05T08:45:55.813Z,9.00
2019-01-05T08:49:05.832Z,11.83
2019-01-05T08:52:41.884Z,14.13
2019-01-05T08:56:07.132Z,13.73
2019-01-05T08:59:26.784Z,15.37
2019-01-05T09:03:08.932Z,21.83
2019-01-05T09:06:47.315Z,23.63
2019-01-05T09:10:08.735Z,26.57
2019-01-05T09:13:33.432Z,23.57
2019-01-05T09:17:22.746Z,24.60
2019-01-05T09:21:11.574Z,22.63
2019-01-05T09:24:53.840Z,24.00
2019-01-05T09:28:34.394Z,26.93
2019-01-05T09:32:02.922Z,15.50
2019-01-05T09:35:34.420Z,20.00
2019-01-05T09:39:07.544Z,21.17
2019-01-05T09:42:40.104Z,19.47
2019-01-05T09:46:22.962Z,16.40
2019-01-05T09:50:05.374Z,21.07
2019-01-05T09:53:27.778Z,12.27
2019-01-05T09:57:09.966Z,12.60
2019-01-05T10:00:58.427Z,11.33
2019-01-05T10:04:38.248Z,13.87
2019-01-05T10:08:15.497Z,11.03
2019-01-05T10:12:07.174Z,15.80
2019-01-05T10:15:29.884Z,12.37
2019-01-05T10:19:11.644Z,11.47
2019-01-05T10:23:02.987Z,8.77
2019-01-05T10:26:20.240Z,14.17
2019-01-05T10:30:07.392Z,13.33
2019-01-05T10:33:49.698Z,10.00
2019-01-05T10:37:07.962Z,15.63
2019-01-05T10:41:00.423Z,14.27
2019-01-05T10:44:41.415Z,10.20
2019-01-05T10:48:19.623Z,12.73
2019-01-05T10:51:58.845Z,11.00
2019-01-05T10:55:26.913Z,11.40
2019-01-05T10:59:01.016Z,18.50
2019-01-05T11:02:43.477Z,16.07
2019-01-05T11:06:23.142Z,16.83
2019-01-05T11:09:58.327Z,11.90
2019-01-05T11:13:38.937Z,10.33
2019-01-05T11:17:10.423Z,15.07
2019-01-05T11:20:52.678Z,11.13
2019-01-05T11:24:50.192Z,11.27
2019-01-05T11:28:32.466Z,13.63
2019-01-05T11:31:57.467Z,9.60
2019-01-05T11:35:39.220Z,10.13
2019-01-05T11:39:20.750Z,9.77
2019-01-05T11:42:43.452Z,9.90
2019-01-05T11:46:11.737Z,10.67
2019-01-05T11:49:46.988Z,9.60
2019-01-05T11:53:35.733Z,11.20
2019-01-05T11:57:17.934Z,10.60
2019-01-05T12:00:42.974Z,13.33
2019-01-05T12:04:15.311Z,13.10
2019-01-05T12:07:47.857Z,10.50
2019-01-05T12:11:17.812Z,11.80
2019-01-05T12:14:53.510Z,12.13
2019-01-05T12:18:18.388Z,10.77
2019-01-05T12:21:48.528Z,6.73
2019-01-05T12:25:13.572Z,9.47
2019-01-05T12:28:43.682Z,10.97
2019-01-05T12:32:22.314Z,6.80
2019-01-05T12:35:50.578Z,10.17
2019-01-05T12:39:28.605Z,11.67
2019-01-05T12:42:55.998Z,13.93
2019-01-05T12:46:29.921Z,10.53
2019-01-05T12:50:16.392Z,11.43
2019-01-05T12:53:37.805Z,7.33
2019-01-05T12:57:04.996Z,12.03
2019-01-05T13:00:30.337Z,11.33
2019-01-05T13:03:56.669Z,12.70
2019-01-05T13:07:26.716Z,10.70
2019-01-05T13:11:20.481Z,14.13
2019-01-05T13:14:45.132Z,15.60
2019-01-05T13:18:24.110Z,13.40
2019-01-05T13:22:18.255Z,13.53
2019-01-05T13:26:07.505Z,11.73
2019-01-05T13:29:32.851Z,14.67
2019-01-05T13:33:03.665Z,16.20
2019-01-05T13:36:31.170Z,17.70
2019-01-05T13:39:54.237Z,15.77
2019-01-05T13:43:34.927Z,14.70
2019-01-05T13:47:01.100Z,15.47
2019-01-05T13:50:39.548Z,16.17
2019-01-05T13:53:51.806Z,14.33
2019-01-05T13:56:41.506Z,16.10
2019-01-05T13:59:50.578Z,16.07
2019-01-05T14:02:39.821Z,17.63
2019-01-05T14:05:30.337Z,17.43
2019-01-05T14:08:24.129Z,17.80
2019-01-05T14:11:20.919Z,16.83
2019-01-05T14:14:19.710Z,14.40
2019-01-05T14:17:08.802Z,12.60
2019-01-05T14:20:11.918Z,12.60
2019-01-05T14:22:59.451Z,13.37
2019-01-05T14:25:45.696Z,12.40
2019-01-05T14:28:36.057Z,13.73
2019-01-05T14:31:25.924Z,17.10
2019-01-05T14:34:34.487Z,16.77
2019-01-05T14:37:23.971Z,12.00
2019-01-05T14:40:30.091Z,14.60
2019-01-05T14:43:35.672Z,15.87
2019-01-05T14:46:19.826Z,14.87
2019-01-05T14:49:10.353Z,14.70
2019-01-05T14:52:10.113Z,14.10
2019-01-05T14:55:03.197Z,13.87
2019-01-05T14:57:53.966Z,11.40
2019-01-05T15:00:44.484Z,14.03
2019-01-05T15:03:44.433Z,15.40
2019-01-05T15:06:41.491Z,15.27
2019-01-05T15:09:38.217Z,15.97
2019-01-05T15:12:27.136Z,13.47
2019-01-05T15:15:21.413Z,12.77
2019-01-05T15:18:21.690Z,14.40
2019-01-05T15:21:15.478Z,21.03
2019-01-05T15:24:11.828Z,17.03
2019-01-05T15:27:20.734Z,14.90
2019-01-05T15:30:17.888Z,12.43
2019-01-05T15:33:07.661Z,12.87
2019-01-05T15:35:56.779Z,14.13
2019-01-05T15:38:47.516Z,13.83
2019-01-05T15:41:31.582Z,12.77
2019-01-05T15:44:16.741Z,12.03
2019-01-05T15:47:14.629Z,13.37
2019-01-05T15:50:11.140Z,14.30
2019-01-05T15:53:02.152Z,17.47
2019-01-05T15:55:52.794Z,12.83
2019-01-05T15:58:41.754Z,13.03
2019-01-05T16:01:43.117Z,14.77
2019-01-05T16:16:31.203Z,16.33
2019-01-05T16:19:20.559Z,16.17
2019-01-05T16:22:17.010Z,13.63
2019-01-05T16:25:24.127Z,15.43
2019-01-05T16:28:26.677Z,15.03
2019-01-05T16:31:20.174Z,16.97
2019-01-05T16:34:23.137Z,16.70
2019-01-05T16:37:23.189Z,13.63
2019-01-05T16:40:08.525Z,16.30
2019-01-05T16:42:50.979Z,15.40
2019-01-05T16:45:31.783Z,12.50
2019-01-05T16:48:21.063Z,17.30
2019-01-05T16:51:10.017Z,16.80
2019-01-05T16:54:19.680Z,16.83
2019-01-05T16:57:09.620Z,14.10
2019-01-05T17:00:03.158Z,16.83
2019-01-05T17:02:53.879Z,13.97
2019-01-05T17:05:43.932Z,17.53
2019-01-05T17:08:33.149Z,15.37
2019-01-05T17:11:22.308Z,18.87
2019-01-05T17:14:22.868Z,13.60
2019-01-05T17:17:34.445Z,16.10
2019-01-05T17:20:20.536Z,15.23
2019-01-05T17:23:09.620Z,13.97
2019-01-05T17:25:58.476Z,19.50
2019-01-05T17:28:58.405Z,12.97
2019-01-05T17:31:48.990Z,17.83
2019-01-05T17:34:51.767Z,16.97
2019-01-05T17:37:46.084Z,16.47
2019-01-05T17:40:36.453Z,18.47
2019-01-05T17:43:32.667Z,18.87
2019-01-05T17:46:27.332Z,19.70
2019-01-05T17:49:16.579Z,17.27
2019-01-05T17:52:13.512Z,17.67
2019-01-05T17:55:03.848Z,17.20
2019-01-05T17:57:53.304Z,16.20
2019-01-05T18:00:44.600Z,20.60
2019-01-05T18:03:53.300Z,19.23
2019-01-05T18:06:38.901Z,15.27
2019-01-05T18:09:26.876Z,15.73
2019-01-05T18:12:15.398Z,16.67
2019-01-05T18:15:04.839Z,17.70
2019-01-05T18:17:54.680Z,14.60
2019-01-05T18:20:45.358Z,15.73
2019-01-05T18:23:41.946Z,12.93
2019-01-05T18:26:42.470Z,13.67
2019-01-05T18:29:41.959Z,15.37
2019-01-05T18:32:38.518Z,15.07
2019-01-05T18:35:28.614Z,12.03
2019-01-05T18:38:19.070Z,15.03
2019-01-05T18:41:17.058Z,13.37
2019-01-05T18:44:04.109Z,13.70
2019-01-05T18:46:53.610Z,15.73
2019-01-05T18:49:59.850Z,16.80
2019-01-05T18:53:03.402Z,14.30
2019-01-05T18:55:52.377Z,16.67
2019-01-05T18:58:51.853Z,16.73
2019-01-05T19:01:50.037Z,13.13
2019-01-05T19:04:34.765Z,18.07
2019-01-05T19:07:23.579Z,17.13
2019-01-05T19:10:30.548Z,14.50
2019-01-05T19:13:39.424Z,17.17
2019-01-05T19:16:28.597Z,12.33
2019-01-05T19:19:21.696Z,15.07
2019-01-05T19:22:13.176Z,11.20
2019-01-05T19:25:01.970Z,13.87
2019-01-05T19:27:53.598Z,10.40
2019-01-05T19:30:43.721Z,9.83
2019-01-05T19:33:36.931Z,13.53
2019-01-05T19:36:33.301Z,9.00
2019-01-05T19:39:23.655Z,11.20
2019-01-05T19:42:12.773Z,9.50
2019-01-05T19:45:12.201Z,10.47
2019-01-05T19:48:02.544Z,10.03
2019-01-05T19:51:09.357Z,11.70
2019-01-05T19:53:58.236Z,12.57
2019-01-05T19:56:54.654Z,11.00
2019-01-05T19:59:45.805Z,13.90
2019-01-05T20:02:52.006Z,11.90
2019-01-05T20:05:43.657Z,13.00
2019-01-05T20:08:28.659Z,10.87
2019-01-05T20:11:27.836Z,13.23
2019-01-05T20:14:20.324Z,10.77
2019-01-05T20:17:23.142Z,10.10
2019-01-05T20:20:12.713Z,12.87
2019-01-05T20:23:01.852Z,11.20
2019-01-05T20:25:52.543Z,11.13
2019-01-05T20:28:43.002Z,11.47
2019-01-05T20:31:27.591Z,10.97
2019-01-05T20:34:20.717Z,12.90
2019-01-05T20:37:10.084Z,14.70
2019-01-05T20:40:03.661Z,12.10
2019-01-05T20:42:53.036Z,14.77
2019-01-05T20:45:42.506Z,12.83
2019-01-05T20:48:36.222Z,13.87
2019-01-05T20:51:25.167Z,12.93
2019-01-05T20:54:19.150Z,14.83
2019-01-05T20:57:18.468Z,12.47
2019-01-05T21:00:13.706Z,16.10
2019-01-05T21:03:10.460Z,13.27
2019-01-05T21:05:58.090Z,13.40
2019-01-05T21:09:08.764Z,15.83
2019-01-05T21:12:03.998Z,12.33
2019-01-05T21:14:53.123Z,15.70
2019-01-05T21:18:00.460Z,14.90
2019-01-05T21:20:51.942Z,16.00
2019-01-05T21:23:51.899Z,17.13
2019-01-05T21:26:43.281Z,13.77
2019-01-05T21:29:29.783Z,15.87
2019-01-05T21:32:32.985Z,18.00
2019-01-05T21:38:24.357Z,14.67
2019-01-05T21:41:15.117Z,14.20
2019-01-05T21:44:06.719Z,14.97
2019-01-05T21:47:02.203Z,16.10
2019-01-05T21:49:56.644Z,13.30
2019-01-05T21:53:03.994Z,14.23
2019-01-05T21:56:11.644Z,14.47
2019-01-05T21:59:09.771Z,14.33
2019-01-05T22:01:55.015Z,20.40
2019-01-05T22:04:45.845Z,20.53
2019-01-05T22:07:35.530Z,20.63
2019-01-05T22:10:28.936Z,21.47
2019-01-05T22:13:24.249Z,21.07
2019-01-05T22:16:15.862Z,20.93
2019-01-05T22:19:12.266Z,24.33
2019-01-05T22:22:20.072Z,23.57
2019-01-05T22:25:11.656Z,22.47
2019-01-05T22:28:03.025Z,22.70
2019-01-05T22:30:53.057Z,21.93
2019-01-05T22:33:43.226Z,22.20
2019-01-05T22:36:50.571Z,23.50
2019-01-05T22:39:44.061Z,23.33
2019-01-05T22:42:44.300Z,23.27
2019-01-05T22:45:54.025Z,22.97
2019-01-05T22:49:02.071Z,22.87
2019-01-05T22:51:51.505Z,24.00
2019-01-05T22:54:45.884Z,22.17
2019-01-05T22:57:35.547Z,21.97
2019-01-05T23:00:32.108Z,21.30
2019-01-05T23:03:22.466Z,23.10
2019-01-05T23:06:16.824Z,22.93
2019-01-05T23:09:17.344Z,21.73
2019-01-05T23:12:11.794Z,21.90
2019-01-05T23:15:03.516Z,22.27
2019-01-05T23:17:58.612Z,22.77
2019-01-05T23:20:53.196Z,22.07
2019-01-05T23:23:45.647Z,23.17
2019-01-05T23:26:37.018Z,22.17
2019-01-05T23:29:26.912Z,21.63
2019-01-05T23:32:36.518Z,22.40
2019-01-05T23:35:27.518Z,21.70
2019-01-05T23:38:17.201Z,22.27
2019-01-05T23:41:07.479Z,21.50
2019-01-05T23:44:04.242Z,21.80
2019-01-05T23:46:54.534Z,21.53
2019-01-05T23:49:48.646Z,23.00
2019-01-05T23:52:41.105Z,21.93
2019-01-05T23:55:47.687Z,21.83
2019-01-05T23:58:46.123Z,22.67
